Terminal Aerodrome Forecast
Issued by NWS

Home | Current Version | Previous Version | Text Only | Print | Product List | Glossary On
Versions: 1 2 3 4 5 6 7 8 9 10 11 12 13 14 15 16 17 18 19 20 21 22 23 24 25 26
000
FTUS44 KOUN 171122
TAFCSM
TAF
KCSM 171122Z 1712/1812 35006KT P6SM SCT150
      TEMPO 1712/1714 2SM BR VV004
     FM171800 07007KT P6SM SCT250
     FM180000 12009KT P6SM BKN150 PROB30 1805/1809 3SM TSRA
      BKN050CB=

USA.gov is the U.S. government's official web portal to all federal, state and local government web resources and services.